sensor_id;sensor_type;location;lat;lon;timestamp;pressure;altitude;pressure_sealevel;temperature;humidity
4570;BME280;2297;51.442;6.996;2024-02-14T00:02:03;100242.03;;;9.35;52.94
4570;BME280;2297;51.442;6.996;2024-02-14T00:04:31;100218.06;;;9.47;53.19
4570;BME280;2297;51.442;6.996;2024-02-14T00:06:57;100220.94;;;9.35;53.17
4570;BME280;2297;51.442;6.996;2024-02-14T00:09:24;100211.56;;;9.67;52.40
4570;BME280;2297;51.442;6.996;2024-02-14T00:11:52;100211.66;;;9.64;52.61
4570;BME280;2297;51.442;6.996;2024-02-14T00:14:19;100211.97;;;9.45;53.47
4570;BME280;2297;51.442;6.996;2024-02-14T00:16:45;100207.00;;;9.28;54.43
4570;BME280;2297;51.442;6.996;2024-02-14T00:19:12;100206.91;;;9.33;54.43
4570;BME280;2297;51.442;6.996;2024-02-14T00:21:39;100204.19;;;9.38;55.64
4570;BME280;2297;51.442;6.996;2024-02-14T00:24:06;100208.63;;;9.37;55.77
4570;BME280;2297;51.442;6.996;2024-02-14T00:26:32;100209.44;;;9.39;56.20
4570;BME280;2297;51.442;6.996;2024-02-14T00:29:01;100199.94;;;9.29;56.62
4570;BME280;2297;51.442;6.996;2024-02-14T00:31:28;100194.81;;;9.23;56.65
4570;BME280;2297;51.442;6.996;2024-02-14T00:33:55;100207.53;;;8.94;57.27
4570;BME280;2297;51.442;6.996;2024-02-14T00:36:21;100197.22;;;8.80;57.99
4570;BME280;2297;51.442;6.996;2024-02-14T00:38:48;100211.59;;;8.55;58.60
4570;BME280;2297;51.442;6.996;2024-02-14T00:41:15;100207.41;;;9.02;57.48
4570;BME280;2297;51.442;6.996;2024-02-14T00:43:41;100209.06;;;9.09;57.62
4570;BME280;2297;51.442;6.996;2024-02-14T00:46:15;100212.84;;;8.93;58.15
4570;BME280;2297;51.442;6.996;2024-02-14T00:48:42;100211.34;;;8.76;58.95
4570;BME280;2297;51.442;6.996;2024-02-14T00:51:09;100205.75;;;8.98;58.01
4570;BME280;2297;51.442;6.996;2024-02-14T00:53:36;100195.63;;;8.70;59.46
4570;BME280;2297;51.442;6.996;2024-02-14T00:56:03;100200.69;;;8.82;59.95
4570;BME280;2297;51.442;6.996;2024-02-14T00:58:31;100187.31;;;8.96;59.02
4570;BME280;2297;51.442;6.996;2024-02-14T01:00:57;100193.38;;;9.03;59.11
4570;BME280;2297;51.442;6.996;2024-02-14T01:03:25;100188.63;;;8.69;60.25
4570;BME280;2297;51.442;6.996;2024-02-14T01:05:52;100191.09;;;8.78;60.38
4570;BME280;2297;51.442;6.996;2024-02-14T01:08:19;100187.22;;;8.43;61.34
4570;BME280;2297;51.442;6.996;2024-02-14T01:10:46;100185.41;;;8.45;61.77
4570;BME280;2297;51.442;6.996;2024-02-14T01:13:16;100182.50;;;8.64;61.35
4570;BME280;2297;51.442;6.996;2024-02-14T01:15:43;100185.34;;;8.52;61.43
4570;BME280;2297;51.442;6.996;2024-02-14T01:18:10;100176.34;;;8.68;61.00
4570;BME280;2297;51.442;6.996;2024-02-14T01:20:37;100180.41;;;8.89;60.05
4570;BME280;2297;51.442;6.996;2024-02-14T01:23:04;100169.16;;;8.79;60.11
4570;BME280;2297;51.442;6.996;2024-02-14T01:25:31;100174.72;;;8.58;60.47
4570;BME280;2297;51.442;6.996;2024-02-14T01:27:59;100167.53;;;8.72;60.19
4570;BME280;2297;51.442;6.996;2024-02-14T01:30:26;100169.81;;;8.33;61.35
4570;BME280;2297;51.442;6.996;2024-02-14T01:32:52;100161.28;;;8.78;60.09
4570;BME280;2297;51.442;6.996;2024-02-14T01:35:19;100155.75;;;8.95;59.33
4570;BME280;2297;51.442;6.996;2024-02-14T01:37:47;100152.69;;;9.20;58.57
4570;BME280;2297;51.442;6.996;2024-02-14T01:40:14;100166.63;;;9.25;58.21
4570;BME280;2297;51.442;6.996;2024-02-14T01:42:41;100158.63;;;8.79;59.44
4570;BME280;2297;51.442;6.996;2024-02-14T01:45:08;100154.34;;;9.24;58.44
4570;BME280;2297;51.442;6.996;2024-02-14T01:47:35;100147.94;;;8.89;58.89
4570;BME280;2297;51.442;6.996;2024-02-14T01:50:02;100156.06;;;9.28;57.85
4570;BME280;2297;51.442;6.996;2024-02-14T01:52:29;100147.63;;;9.07;58.00
4570;BME280;2297;51.442;6.996;2024-02-14T01:54:58;100151.22;;;9.03;58.80
4570;BME280;2297;51.442;6.996;2024-02-14T01:57:25;100154.50;;;9.14;58.18
4570;BME280;2297;51.442;6.996;2024-02-14T01:59:53;100150.75;;;8.78;59.32
4570;BME280;2297;51.442;6.996;2024-02-14T02:02:20;100139.31;;;8.80;59.31
4570;BME280;2297;51.442;6.996;2024-02-14T02:04:47;100147.47;;;9.17;58.44
4570;BME280;2297;51.442;6.996;2024-02-14T02:07:14;100159.38;;;8.86;59.08
4570;BME280;2297;51.442;6.996;2024-02-14T02:09:42;100153.25;;;8.87;58.95
4570;BME280;2297;51.442;6.996;2024-02-14T02:12:10;100151.28;;;9.00;58.29
4570;BME280;2297;51.442;6.996;2024-02-14T02:14:37;100156.69;;;8.91;58.84
4570;BME280;2297;51.442;6.996;2024-02-14T02:17:05;100153.91;;;8.98;58.60
4570;BME280;2297;51.442;6.996;2024-02-14T02:19:33;100158.94;;;9.14;57.98
4570;BME280;2297;51.442;6.996;2024-02-14T02:22:01;100152.56;;;9.26;58.06
4570;BME280;2297;51.442;6.996;2024-02-14T02:24:30;100156.16;;;9.22;58.15
4570;BME280;2297;51.442;6.996;2024-02-14T02:26:56;100153.38;;;9.31;57.69
4570;BME280;2297;51.442;6.996;2024-02-14T02:29:23;100161.00;;;9.45;57.23
4570;BME280;2297;51.442;6.996;2024-02-14T02:31:50;100154.59;;;9.11;58.41
4570;BME280;2297;51.442;6.996;2024-02-14T02:34:17;100148.69;;;9.47;57.54
4570;BME280;2297;51.442;6.996;2024-02-14T02:36:44;100149.22;;;9.64;57.04
4570;BME280;2297;51.442;6.996;2024-02-14T02:39:11;100158.28;;;9.50;57.13
4570;BME280;2297;51.442;6.996;2024-02-14T02:41:40;100151.13;;;9.56;56.49
4570;BME280;2297;51.442;6.996;2024-02-14T02:44:07;100152.97;;;9.53;56.55
4570;BME280;2297;51.442;6.996;2024-02-14T02:46:33;100167.25;;;9.39;57.54
4570;BME280;2297;51.442;6.996;2024-02-14T02:49:01;100163.66;;;9.43;56.85
4570;BME280;2297;51.442;6.996;2024-02-14T02:51:27;100161.09;;;9.40;57.21
4570;BME280;2297;51.442;6.996;2024-02-14T02:53:55;100160.06;;;9.49;56.53
4570;BME280;2297;51.442;6.996;2024-02-14T02:56:21;100175.53;;;9.68;56.34
4570;BME280;2297;51.442;6.996;2024-02-14T02:58:54;100152.53;;;9.27;57.56
4570;BME280;2297;51.442;6.996;2024-02-14T03:01:20;100145.28;;;9.40;56.88
4570;BME280;2297;51.442;6.996;2024-02-14T03:03:49;100143.97;;;9.63;56.67
4570;BME280;2297;51.442;6.996;2024-02-14T03:06:15;100150.31;;;9.53;56.93
4570;BME280;2297;51.442;6.996;2024-02-14T03:08:42;100148.41;;;9.61;56.44
4570;BME280;2297;51.442;6.996;2024-02-14T03:11:09;100150.38;;;9.50;57.63
4570;BME280;2297;51.442;6.996;2024-02-14T03:13:36;100142.38;;;9.56;57.89
4570;BME280;2297;51.442;6.996;2024-02-14T03:16:07;100146.75;;;9.55;58.23
4570;BME280;2297;51.442;6.996;2024-02-14T03:18:34;100141.94;;;9.32;58.54
4570;BME280;2297;51.442;6.996;2024-02-14T03:21:00;100144.69;;;9.71;57.67
4570;BME280;2297;51.442;6.996;2024-02-14T03:23:27;100135.31;;;9.56;57.87
4570;BME280;2297;51.442;6.996;2024-02-14T03:25:54;100154.31;;;9.27;58.72
4570;BME280;2297;51.442;6.996;2024-02-14T03:28:20;100147.03;;;9.41;58.49
4570;BME280;2297;51.442;6.996;2024-02-14T03:30:47;100145.41;;;9.34;58.82
4570;BME280;2297;51.442;6.996;2024-02-14T03:33:15;100143.31;;;9.52;58.95
4570;BME280;2297;51.442;6.996;2024-02-14T03:35:42;100137.13;;;9.53;59.40
4570;BME280;2297;51.442;6.996;2024-02-14T03:38:08;100150.06;;;9.67;59.02
4570;BME280;2297;51.442;6.996;2024-02-14T03:40:35;100137.66;;;9.70;59.04
4570;BME280;2297;51.442;6.996;2024-02-14T03:43:03;100152.13;;;9.51;59.71
4570;BME280;2297;51.442;6.996;2024-02-14T03:45:30;100144.03;;;9.60;59.77
4570;BME280;2297;51.442;6.996;2024-02-14T03:47:57;100153.84;;;9.52;59.95
4570;BME280;2297;51.442;6.996;2024-02-14T03:50:25;100151.97;;;9.60;59.76
4570;BME280;2297;51.442;6.996;2024-02-14T03:52:51;100139.69;;;10.03;58.85
4570;BME280;2297;51.442;6.996;2024-02-14T03:55:18;100136.00;;;10.11;58.43
4570;BME280;2297;51.442;6.996;2024-02-14T03:57:45;100145.00;;;10.01;58.64
4570;BME280;2297;51.442;6.996;2024-02-14T04:00:13;100136.00;;;9.66;59.73
4570;BME280;2297;51.442;6.996;2024-02-14T04:02:39;100139.84;;;9.50;60.60
4570;BME280;2297;51.442;6.996;2024-02-14T04:05:07;100165.06;;;9.63;60.31
4570;BME280;2297;51.442;6.996;2024-02-14T04:07:35;100154.25;;;9.30;62.11
4570;BME280;2297;51.442;6.996;2024-02-14T04:10:02;100154.34;;;9.72;60.66
4570;BME280;2297;51.442;6.996;2024-02-14T04:12:29;100153.97;;;9.45;62.09
4570;BME280;2297;51.442;6.996;2024-02-14T04:14:56;100152.84;;;9.59;61.14
4570;BME280;2297;51.442;6.996;2024-02-14T04:17:23;100153.56;;;9.67;61.16
4570;BME280;2297;51.442;6.996;2024-02-14T04:19:49;100162.94;;;9.84;60.77
4570;BME280;2297;51.442;6.996;2024-02-14T04:22:16;100148.69;;;9.91;60.56
4570;BME280;2297;51.442;6.996;2024-02-14T04:24:44;100158.47;;;9.86;60.69
4570;BME280;2297;51.442;6.996;2024-02-14T04:27:11;100153.69;;;10.06;60.38
4570;BME280;2297;51.442;6.996;2024-02-14T04:29:38;100159.94;;;10.02;60.52
4570;BME280;2297;51.442;6.996;2024-02-14T04:32:05;100161.53;;;10.09;60.20
4570;BME280;2297;51.442;6.996;2024-02-14T04:34:31;100164.81;;;10.21;60.40
4570;BME280;2297;51.442;6.996;2024-02-14T04:36:58;100172.41;;;9.94;60.75
4570;BME280;2297;51.442;6.996;2024-02-14T04:39:25;100166.31;;;9.90;61.42
4570;BME280;2297;51.442;6.996;2024-02-14T04:41:53;100175.56;;;10.11;60.69
4570;BME280;2297;51.442;6.996;2024-02-14T04:44:19;100193.38;;;10.00;61.06
4570;BME280;2297;51.442;6.996;2024-02-14T04:46:46;100157.66;;;10.26;60.61
4570;BME280;2297;51.442;6.996;2024-02-14T04:49:13;100180.38;;;10.33;60.29
4570;BME280;2297;51.442;6.996;2024-02-14T04:51:40;100179.88;;;10.14;60.95
4570;BME280;2297;51.442;6.996;2024-02-14T04:54:07;100175.22;;;10.27;60.89
4570;BME280;2297;51.442;6.996;2024-02-14T04:56:34;100167.97;;;10.38;60.20
4570;BME280;2297;51.442;6.996;2024-02-14T04:59:02;100183.56;;;10.49;60.22
4570;BME280;2297;51.442;6.996;2024-02-14T05:01:28;100170.22;;;10.14;60.86
4570;BME280;2297;51.442;6.996;2024-02-14T05:03:54;100170.53;;;10.41;60.21
4570;BME280;2297;51.442;6.996;2024-02-14T05:06:21;100179.22;;;10.04;61.37
4570;BME280;2297;51.442;6.996;2024-02-14T05:08:47;100177.16;;;10.19;61.13
4570;BME280;2297;51.442;6.996;2024-02-14T05:11:16;100187.19;;;10.43;60.44
4570;BME280;2297;51.442;6.996;2024-02-14T05:13:43;100185.59;;;10.36;60.56
4570;BME280;2297;51.442;6.996;2024-02-14T05:16:13;100183.59;;;10.47;59.82
4570;BME280;2297;51.442;6.996;2024-02-14T05:18:39;100183.22;;;10.24;60.96
4570;BME280;2297;51.442;6.996;2024-02-14T05:21:06;100207.56;;;10.38;60.71
4570;BME280;2297;51.442;6.996;2024-02-14T05:23:33;100182.88;;;10.41;60.44
4570;BME280;2297;51.442;6.996;2024-02-14T05:26:01;100188.22;;;10.36;60.76
4570;BME280;2297;51.442;6.996;2024-02-14T05:28:28;100184.72;;;10.36;60.78
4570;BME280;2297;51.442;6.996;2024-02-14T05:30:55;100213.66;;;10.40;60.78
4570;BME280;2297;51.442;6.996;2024-02-14T05:33:24;100208.22;;;10.06;61.86
4570;BME280;2297;51.442;6.996;2024-02-14T05:35:51;100198.34;;;10.16;61.67
4570;BME280;2297;51.442;6.996;2024-02-14T05:38:18;100202.78;;;10.13;62.55
4570;BME280;2297;51.442;6.996;2024-02-14T05:40:45;100196.78;;;10.47;61.33
4570;BME280;2297;51.442;6.996;2024-02-14T05:43:12;100211.81;;;10.02;62.88
4570;BME280;2297;51.442;6.996;2024-02-14T05:45:39;100212.72;;;10.02;62.86
4570;BME280;2297;51.442;6.996;2024-02-14T05:48:06;100198.88;;;10.33;61.55
4570;BME280;2297;51.442;6.996;2024-02-14T05:50:35;100208.44;;;10.37;61.39
4570;BME280;2297;51.442;6.996;2024-02-14T05:53:02;100209.69;;;10.19;61.60
4570;BME280;2297;51.442;6.996;2024-02-14T05:55:29;100199.56;;;9.99;63.36
4570;BME280;2297;51.442;6.996;2024-02-14T05:57:56;100199.56;;;10.41;62.11
4570;BME280;2297;51.442;6.996;2024-02-14T06:00:24;100207.47;;;10.41;61.82
4570;BME280;2297;51.442;6.996;2024-02-14T06:02:50;100213.09;;;10.24;62.67
4570;BME280;2297;51.442;6.996;2024-02-14T06:05:17;100207.50;;;10.40;62.43
4570;BME280;2297;51.442;6.996;2024-02-14T06:07:45;100227.78;;;10.39;62.39
4570;BME280;2297;51.442;6.996;2024-02-14T06:10:12;100212.50;;;10.52;62.31
4570;BME280;2297;51.442;6.996;2024-02-14T06:12:39;100226.16;;;10.32;62.97
4570;BME280;2297;51.442;6.996;2024-02-14T06:15:07;100208.66;;;10.28;63.13
4570;BME280;2297;51.442;6.996;2024-02-14T06:17:33;100229.28;;;10.50;62.27
4570;BME280;2297;51.442;6.996;2024-02-14T06:20:00;100219.44;;;10.17;63.82
4570;BME280;2297;51.442;6.996;2024-02-14T06:22:31;100219.59;;;10.52;62.54
4570;BME280;2297;51.442;6.996;2024-02-14T06:24:59;100224.59;;;10.22;63.85
4570;BME280;2297;51.442;6.996;2024-02-14T06:27:25;100227.09;;;10.29;63.46
4570;BME280;2297;51.442;6.996;2024-02-14T06:29:53;100227.28;;;10.61;62.66
4570;BME280;2297;51.442;6.996;2024-02-14T06:32:20;100233.59;;;10.55;62.49
4570;BME280;2297;51.442;6.996;2024-02-14T06:34:46;100243.66;;;10.36;63.68
4570;BME280;2297;51.442;6.996;2024-02-14T06:37:13;100232.44;;;10.26;64.50
4570;BME280;2297;51.442;6.996;2024-02-14T06:39:39;100235.50;;;10.47;64.35
4570;BME280;2297;51.442;6.996;2024-02-14T06:42:07;100239.81;;;10.53;63.76
4570;BME280;2297;51.442;6.996;2024-02-14T06:44:34;100233.88;;;10.41;63.79
4570;BME280;2297;51.442;6.996;2024-02-14T06:47:01;100232.97;;;10.42;64.41
4570;BME280;2297;51.442;6.996;2024-02-14T06:49:27;100228.66;;;10.38;64.29
4570;BME280;2297;51.442;6.996;2024-02-14T06:51:54;100242.25;;;10.60;63.34
4570;BME280;2297;51.442;6.996;2024-02-14T06:54:21;100246.41;;;10.72;63.00
4570;BME280;2297;51.442;6.996;2024-02-14T06:56:47;100260.16;;;10.47;63.32
4570;BME280;2297;51.442;6.996;2024-02-14T06:59:15;100254.09;;;10.42;63.69
4570;BME280;2297;51.442;6.996;2024-02-14T07:01:42;100253.03;;;10.07;64.87
4570;BME280;2297;51.442;6.996;2024-02-14T07:04:08;100252.81;;;10.60;63.17
4570;BME280;2297;51.442;6.996;2024-02-14T07:06:36;100253.72;;;10.61;62.95
4570;BME280;2297;51.442;6.996;2024-02-14T07:09:02;100257.81;;;10.32;64.20
4570;BME280;2297;51.442;6.996;2024-02-14T07:11:29;100264.16;;;10.25;64.83
4570;BME280;2297;51.442;6.996;2024-02-14T07:13:56;100269.88;;;10.45;64.22
4570;BME280;2297;51.442;6.996;2024-02-14T07:16:25;100284.41;;;10.23;65.37
4570;BME280;2297;51.442;6.996;2024-02-14T07:18:51;100277.72;;;10.06;65.34
4570;BME280;2297;51.442;6.996;2024-02-14T07:21:18;100274.09;;;10.54;64.23
4570;BME280;2297;51.442;6.996;2024-02-14T07:23:44;100287.81;;;10.72;63.67
4570;BME280;2297;51.442;6.996;2024-02-14T07:26:12;100273.66;;;10.32;64.44
4570;BME280;2297;51.442;6.996;2024-02-14T07:28:39;100281.50;;;10.35;64.74
4570;BME280;2297;51.442;6.996;2024-02-14T07:31:06;100282.94;;;10.52;64.05
4570;BME280;2297;51.442;6.996;2024-02-14T07:33:34;100277.09;;;10.37;64.40
4570;BME280;2297;51.442;6.996;2024-02-14T07:36:01;100285.31;;;10.64;63.68
4570;BME280;2297;51.442;6.996;2024-02-14T07:38:28;100285.69;;;10.47;63.84
4570;BME280;2297;51.442;6.996;2024-02-14T07:40:54;100278.53;;;10.52;64.15
4570;BME280;2297;51.442;6.996;2024-02-14T07:43:21;100285.66;;;10.48;64.37
4570;BME280;2297;51.442;6.996;2024-02-14T07:45:48;100296.47;;;10.36;64.89
4570;BME280;2297;51.442;6.996;2024-02-14T07:48:15;100291.50;;;10.63;64.62
4570;BME280;2297;51.442;6.996;2024-02-14T07:50:43;100284.03;;;10.41;65.37
4570;BME280;2297;51.442;6.996;2024-02-14T07:53:10;100292.47;;;10.59;64.45
4570;BME280;2297;51.442;6.996;2024-02-14T07:55:37;100299.06;;;10.38;65.27
4570;BME280;2297;51.442;6.996;2024-02-14T07:58:04;100294.41;;;10.51;65.07
4570;BME280;2297;51.442;6.996;2024-02-14T08:00:30;100305.34;;;10.74;64.04
4570;BME280;2297;51.442;6.996;2024-02-14T08:02:57;100295.44;;;10.86;63.77
4570;BME280;2297;51.442;6.996;2024-02-14T08:05:24;100297.63;;;10.65;63.85
4570;BME280;2297;51.442;6.996;2024-02-14T08:07:52;100300.44;;;10.57;63.94
4570;BME280;2297;51.442;6.996;2024-02-14T08:10:19;100301.13;;;10.67;63.45
4570;BME280;2297;51.442;6.996;2024-02-14T08:12:45;100301.78;;;10.77;63.17
4570;BME280;2297;51.442;6.996;2024-02-14T08:15:13;100304.09;;;10.91;63.00
4570;BME280;2297;51.442;6.996;2024-02-14T08:17:39;100305.06;;;10.87;62.91
4570;BME280;2297;51.442;6.996;2024-02-14T08:20:07;100295.63;;;10.76;63.17
4570;BME280;2297;51.442;6.996;2024-02-14T08:22:34;100295.47;;;10.82;63.41
4570;BME280;2297;51.442;6.996;2024-02-14T08:25:02;100306.44;;;11.05;62.44
4570;BME280;2297;51.442;6.996;2024-02-14T08:27:28;100297.34;;;10.77;62.96
4570;BME280;2297;51.442;6.996;2024-02-14T08:29:56;100297.53;;;11.09;62.08
4570;BME280;2297;51.442;6.996;2024-02-14T08:32:23;100304.69;;;11.04;61.95
4570;BME280;2297;51.442;6.996;2024-02-14T08:34:50;100307.72;;;10.87;62.24
4570;BME280;2297;51.442;6.996;2024-02-14T08:37:16;100295.69;;;10.73;63.20
4570;BME280;2297;51.442;6.996;2024-02-14T08:39:43;100307.31;;;11.05;62.22
4570;BME280;2297;51.442;6.996;2024-02-14T08:42:11;100302.09;;;11.02;61.92
4570;BME280;2297;51.442;6.996;2024-02-14T08:44:38;100312.75;;;10.99;62.37
4570;BME280;2297;51.442;6.996;2024-02-14T08:47:06;100317.56;;;10.80;63.17
4570;BME280;2297;51.442;6.996;2024-02-14T08:49:33;100316.75;;;11.17;61.95
4570;BME280;2297;51.442;6.996;2024-02-14T08:51:59;100315.31;;;11.02;62.84
4570;BME280;2297;51.442;6.996;2024-02-14T08:54:26;100332.50;;;11.23;61.77
4570;BME280;2297;51.442;6.996;2024-02-14T08:56:53;100323.78;;;11.18;62.12
4570;BME280;2297;51.442;6.996;2024-02-14T08:59:25;100325.38;;;11.25;62.23
4570;BME280;2297;51.442;6.996;2024-02-14T09:01:51;100321.28;;;11.13;62.85
4570;BME280;2297;51.442;6.996;2024-02-14T09:04:18;100320.16;;;11.22;62.08
4570;BME280;2297;51.442;6.996;2024-02-14T09:06:45;100319.66;;;11.44;61.07
4570;BME280;2297;51.442;6.996;2024-02-14T09:09:11;100323.22;;;11.41;61.77
4570;BME280;2297;51.442;6.996;2024-02-14T09:11:40;100322.19;;;11.48;61.28
4570;BME280;2297;51.442;6.996;2024-02-14T09:14:07;100315.34;;;11.76;60.49
4570;BME280;2297;51.442;6.996;2024-02-14T09:16:37;100325.69;;;11.85;59.84
4570;BME280;2297;51.442;6.996;2024-02-14T09:19:04;100324.78;;;11.50;60.23
4570;BME280;2297;51.442;6.996;2024-02-14T09:21:32;100329.63;;;11.69;60.83
4570;BME280;2297;51.442;6.996;2024-02-14T09:24:01;100335.06;;;11.62;61.23
4570;BME280;2297;51.442;6.996;2024-02-14T09:26:28;100334.50;;;11.86;61.06
4570;BME280;2297;51.442;6.996;2024-02-14T09:28:54;100337.56;;;11.69;62.24
4570;BME280;2297;51.442;6.996;2024-02-14T09:31:21;100327.81;;;11.71;62.19
4570;BME280;2297;51.442;6.996;2024-02-14T09:33:49;100332.69;;;11.52;62.47
4570;BME280;2297;51.442;6.996;2024-02-14T09:36:16;100329.81;;;11.61;63.05
4570;BME280;2297;51.442;6.996;2024-02-14T09:38:44;100330.22;;;11.44;63.30
4570;BME280;2297;51.442;6.996;2024-02-14T09:41:15;100324.66;;;11.56;63.36
4570;BME280;2297;51.442;6.996;2024-02-14T09:43:44;100327.16;;;11.61;63.00
4570;BME280;2297;51.442;6.996;2024-02-14T09:46:13;100340.25;;;11.31;63.85
4570;BME280;2297;51.442;6.996;2024-02-14T09:48:40;100331.00;;;11.11;65.03
4570;BME280;2297;51.442;6.996;2024-02-14T09:51:11;100339.84;;;11.46;63.83
4570;BME280;2297;51.442;6.996;2024-02-14T09:53:38;100336.41;;;11.44;64.23
4570;BME280;2297;51.442;6.996;2024-02-14T09:56:05;100335.56;;;11.42;64.44
4570;BME280;2297;51.442;6.996;2024-02-14T09:58:34;100332.16;;;11.73;63.50
4570;BME280;2297;51.442;6.996;2024-02-14T10:01:01;100340.44;;;11.59;63.15
4570;BME280;2297;51.442;6.996;2024-02-14T10:03:28;100352.41;;;11.38;63.48
4570;BME280;2297;51.442;6.996;2024-02-14T10:05:55;100351.81;;;11.63;63.26
4570;BME280;2297;51.442;6.996;2024-02-14T10:08:23;100357.88;;;11.68;62.51
4570;BME280;2297;51.442;6.996;2024-02-14T10:10:50;100346.06;;;11.81;62.75
4570;BME280;2297;51.442;6.996;2024-02-14T10:13:16;100348.81;;;12.11;61.96
4570;BME280;2297;51.442;6.996;2024-02-14T10:15:43;100361.53;;;11.97;61.80
4570;BME280;2297;51.442;6.996;2024-02-14T10:18:10;100354.44;;;11.99;61.27
4570;BME280;2297;51.442;6.996;2024-02-14T10:20:36;100358.97;;;11.94;61.54
4570;BME280;2297;51.442;6.996;2024-02-14T10:23:10;100357.47;;;11.84;61.79
4570;BME280;2297;51.442;6.996;2024-02-14T10:25:38;100354.19;;;11.74;62.26
4570;BME280;2297;51.442;6.996;2024-02-14T10:28:05;100363.75;;;11.79;62.23
4570;BME280;2297;51.442;6.996;2024-02-14T10:30:34;100360.50;;;11.68;62.43
4570;BME280;2297;51.442;6.996;2024-02-14T10:33:02;100363.44;;;11.57;63.25
4570;BME280;2297;51.442;6.996;2024-02-14T10:35:30;100367.25;;;11.81;62.36
4570;BME280;2297;51.442;6.996;2024-02-14T10:37:58;100363.59;;;11.86;62.36
4570;BME280;2297;51.442;6.996;2024-02-14T10:40:27;100375.38;;;11.36;64.13
4570;BME280;2297;51.442;6.996;2024-02-14T10:42:55;100369.84;;;11.47;64.39
4570;BME280;2297;51.442;6.996;2024-02-14T10:45:23;100369.34;;;11.67;63.93
4570;BME280;2297;51.442;6.996;2024-02-14T10:47:51;100364.97;;;11.66;63.56
4570;BME280;2297;51.442;6.996;2024-02-14T10:50:21;100368.72;;;11.56;64.31
4570;BME280;2297;51.442;6.996;2024-02-14T10:52:48;100369.66;;;11.55;63.89
4570;BME280;2297;51.442;6.996;2024-02-14T10:55:16;100370.88;;;11.77;63.65
4570;BME280;2297;51.442;6.996;2024-02-14T10:57:45;100366.09;;;11.56;64.19
4570;BME280;2297;51.442;6.996;2024-02-14T11:00:15;100367.47;;;11.72;63.88
4570;BME280;2297;51.442;6.996;2024-02-14T11:02:43;100363.91;;;11.73;63.89
4570;BME280;2297;51.442;6.996;2024-02-14T11:05:12;100370.16;;;11.69;63.85
4570;BME280;2297;51.442;6.996;2024-02-14T11:07:44;100371.69;;;11.79;63.85
4570;BME280;2297;51.442;6.996;2024-02-14T11:10:13;100377.81;;;11.81;63.96
4570;BME280;2297;51.442;6.996;2024-02-14T11:12:40;100374.56;;;11.70;64.13
4570;BME280;2297;51.442;6.996;2024-02-14T11:15:11;100367.81;;;11.93;64.02
4570;BME280;2297;51.442;6.996;2024-02-14T11:17:40;100369.50;;;11.95;63.37
4570;BME280;2297;51.442;6.996;2024-02-14T11:20:15;100368.19;;;11.41;65.67
4570;BME280;2297;51.442;6.996;2024-02-14T11:22:52;100382.94;;;11.88;64.49
4570;BME280;2297;51.442;6.996;2024-02-14T11:25:22;100368.50;;;12.01;64.24
4570;BME280;2297;51.442;6.996;2024-02-14T11:27:49;100366.13;;;12.25;63.16
4570;BME280;2297;51.442;6.996;2024-02-14T11:30:26;100372.50;;;12.51;62.83
4570;BME280;2297;51.442;6.996;2024-02-14T11:33:10;100379.56;;;12.17;63.34
4570;BME280;2297;51.442;6.996;2024-02-14T11:35:39;100371.13;;;12.37;62.96
4570;BME280;2297;51.442;6.996;2024-02-14T11:38:06;100372.41;;;12.22;62.99
4570;BME280;2297;51.442;6.996;2024-02-14T11:40:33;100366.13;;;12.25;62.75
4570;BME280;2297;51.442;6.996;2024-02-14T11:43:00;100364.88;;;12.40;62.58
4570;BME280;2297;51.442;6.996;2024-02-14T11:45:27;100363.13;;;12.39;62.71
4570;BME280;2297;51.442;6.996;2024-02-14T11:47:55;100362.75;;;12.51;62.08
4570;BME280;2297;51.442;6.996;2024-02-14T11:50:22;100354.25;;;12.71;61.66
4570;BME280;2297;51.442;6.996;2024-02-14T11:52:49;100362.34;;;12.67;61.52
4570;BME280;2297;51.442;6.996;2024-02-14T11:55:17;100362.47;;;12.62;61.55
4570;BME280;2297;51.442;6.996;2024-02-14T11:57:44;100364.81;;;12.73;61.28
4570;BME280;2297;51.442;6.996;2024-02-14T12:00:14;100362.47;;;12.62;61.14
4570;BME280;2297;51.442;6.996;2024-02-14T12:02:41;100350.88;;;12.66;61.42
4570;BME280;2297;51.442;6.996;2024-02-14T12:05:09;100364.47;;;12.54;61.59
4570;BME280;2297;51.442;6.996;2024-02-14T12:07:36;100346.50;;;12.65;61.75
4570;BME280;2297;51.442;6.996;2024-02-14T12:10:03;100352.59;;;12.67;61.35
4570;BME280;2297;51.442;6.996;2024-02-14T12:12:31;100348.63;;;12.52;61.33
4570;BME280;2297;51.442;6.996;2024-02-14T12:15:01;100347.91;;;12.77;61.22
4570;BME280;2297;51.442;6.996;2024-02-14T12:17:27;100349.22;;;12.92;60.68
4570;BME280;2297;51.442;6.996;2024-02-14T12:20:05;100338.91;;;12.83;60.87
4570;BME280;2297;51.442;6.996;2024-02-14T12:22:33;100348.41;;;12.90;60.77
4570;BME280;2297;51.442;6.996;2024-02-14T12:25:00;100356.34;;;12.60;61.73
4570;BME280;2297;51.442;6.996;2024-02-14T12:27:31;100355.38;;;12.94;61.68
4570;BME280;2297;51.442;6.996;2024-02-14T12:29:58;100364.81;;;13.03;61.72
4570;BME280;2297;51.442;6.996;2024-02-14T12:32:25;100362.94;;;12.76;63.17
4570;BME280;2297;51.442;6.996;2024-02-14T12:34:51;100355.75;;;12.80;63.63
4570;BME280;2297;51.442;6.996;2024-02-14T12:37:18;100350.75;;;12.71;63.64
4570;BME280;2297;51.442;6.996;2024-02-14T12:39:46;100346.72;;;12.87;63.62
4570;BME280;2297;51.442;6.996;2024-02-14T12:42:13;100352.56;;;12.69;64.12
4570;BME280;2297;51.442;6.996;2024-02-14T12:44:39;100350.69;;;12.72;64.02
4570;BME280;2297;51.442;6.996;2024-02-14T12:47:06;100358.56;;;12.75;63.74
4570;BME280;2297;51.442;6.996;2024-02-14T12:49:33;100359.56;;;12.05;66.11
4570;BME280;2297;51.442;6.996;2024-02-14T12:52:00;100359.81;;;12.62;64.21
4570;BME280;2297;51.442;6.996;2024-02-14T12:54:27;100358.16;;;12.58;64.88
4570;BME280;2297;51.442;6.996;2024-02-14T12:56:55;100346.38;;;12.38;65.66
4570;BME280;2297;51.442;6.996;2024-02-14T12:59:21;100346.50;;;12.65;64.82
4570;BME280;2297;51.442;6.996;2024-02-14T13:01:48;100340.81;;;12.47;65.47
4570;BME280;2297;51.442;6.996;2024-02-14T13:04:15;100348.13;;;12.69;64.51
4570;BME280;2297;51.442;6.996;2024-02-14T13:06:42;100353.28;;;12.75;64.63
4570;BME280;2297;51.442;6.996;2024-02-14T13:09:08;100342.97;;;12.64;65.22
4570;BME280;2297;51.442;6.996;2024-02-14T13:11:36;100353.06;;;12.52;65.53
4570;BME280;2297;51.442;6.996;2024-02-14T13:14:04;100341.66;;;12.48;65.29
4570;BME280;2297;51.442;6.996;2024-02-14T13:16:31;100334.72;;;12.44;65.15